createdAt,value
2024-03-16T00:05:42.366Z,91.32
2024-03-16T00:08:39.157Z,91.97
2024-03-16T00:11:31.707Z,91.99
2024-03-16T00:18:06.365Z,91.95
2024-03-16T00:21:03.107Z,91.83
2024-03-16T00:24:09.235Z,92.14
2024-03-16T00:27:21.770Z,92.29
2024-03-16T00:30:15.600Z,92.15
2024-03-16T00:33:32.125Z,92.17
2024-03-16T00:36:52.426Z,92.36
2024-03-16T00:39:55.617Z,92.39
2024-03-16T00:42:51.351Z,92.40
2024-03-16T00:46:18.865Z,92.42
2024-03-16T00:49:12.250Z,92.48
2024-03-16T00:54:56.641Z,92.43
2024-03-16T00:57:30.644Z,92.37
2024-03-16T01:00:01.443Z,92.28
2024-03-16T01:02:54.300Z,92.34
2024-03-16T01:05:58.070Z,92.54
2024-03-16T01:09:16.591Z,92.26
2024-03-16T01:12:26.995Z,92.32
2024-03-16T01:19:01.977Z,92.26
2024-03-16T01:54:47.465Z,91.68
2024-03-16T01:57:18.009Z,91.44
2024-03-16T02:00:02.014Z,91.26
2024-03-16T02:02:36.715Z,91.22
2024-03-16T02:05:08.892Z,90.98
2024-03-16T02:07:41.884Z,90.90
2024-03-16T02:10:13.135Z,90.71
2024-03-16T02:13:01.089Z,90.52
2024-03-16T02:15:59.965Z,90.65
2024-03-16T02:18:34.033Z,90.74
2024-03-16T02:21:15.032Z,90.66
2024-03-16T02:23:46.393Z,90.53
2024-03-16T02:26:16.879Z,90.41
2024-03-16T02:28:58.055Z,90.55
2024-03-16T02:32:05.622Z,90.50
2024-03-16T02:35:09.489Z,91.07
2024-03-16T02:38:31.552Z,91.58
2024-03-16T02:41:48.679Z,91.51
2024-03-16T02:44:56.996Z,91.37
2024-03-16T02:48:09.208Z,91.18
2024-03-16T02:51:15.063Z,90.91
2024-03-16T02:54:14.676Z,90.83
2024-03-16T02:57:14.402Z,90.80
2024-03-16T03:03:22.829Z,91.15
2024-03-16T03:09:45.889Z,91.14
2024-03-16T03:12:17.828Z,90.83
2024-03-16T03:14:49.664Z,90.66
2024-03-16T03:17:20.171Z,90.58
2024-03-16T03:19:52.315Z,90.43
2024-03-16T03:22:23.190Z,90.41
2024-03-16T03:24:54.998Z,90.39
2024-03-16T03:27:26.585Z,90.36
2024-03-16T03:29:57.741Z,90.35
2024-03-16T03:32:29.274Z,90.35
2024-03-16T03:35:07.274Z,90.53
2024-03-16T03:38:27.455Z,90.60
2024-03-16T03:40:40.744Z,90.31
2024-03-16T03:43:19.993Z,90.33
2024-03-16T03:45:53.558Z,90.56
2024-03-16T03:48:28.076Z,90.68
2024-03-16T03:51:01.476Z,90.56
2024-03-16T03:54:24.087Z,91.18
2024-03-16T03:57:06.131Z,91.35
2024-03-16T04:00:10.047Z,91.57
2024-03-16T04:06:40.406Z,91.92
2024-03-16T04:09:45.177Z,91.91
2024-03-16T04:12:40.588Z,91.80
2024-03-16T04:15:46.478Z,91.72
2024-03-16T04:18:41.786Z,91.75
2024-03-16T04:21:47.348Z,92.15
2024-03-16T04:25:09.887Z,92.98
2024-03-16T04:28:22.998Z,93.01
2024-03-16T04:31:31.053Z,92.91
2024-03-16T04:34:39.722Z,92.70
2024-03-16T04:37:38.636Z,92.56
2024-03-16T04:43:38.791Z,92.18
2024-03-16T04:46:59.671Z,92.13
2024-03-16T04:49:54.763Z,91.88
2024-03-16T04:52:57.895Z,91.79
2024-03-16T04:55:50.852Z,91.44
2024-03-16T04:58:33.938Z,91.29
2024-03-16T05:01:05.667Z,91.28
2024-03-16T05:03:36.244Z,91.65
2024-03-16T05:06:42.482Z,91.78
2024-03-16T05:09:43.734Z,91.92
2024-03-16T05:13:04.076Z,91.93
2024-03-16T05:16:11.837Z,91.79
2024-03-16T05:19:05.453Z,91.87
2024-03-16T05:25:03.554Z,91.73
2024-03-16T05:34:41.572Z,92.08
2024-03-16T05:40:52.786Z,92.53
2024-03-16T05:43:59.483Z,92.43
2024-03-16T05:47:02.642Z,92.29
2024-03-16T05:49:52.511Z,92.17
2024-03-16T05:52:59.569Z,92.63
2024-03-16T05:56:05.466Z,93.19
2024-03-16T05:59:05.817Z,93.16
2024-03-16T06:02:04.605Z,93.24
2024-03-16T06:05:13.140Z,93.12
2024-03-16T06:08:16.672Z,93.24
2024-03-16T06:11:30.402Z,93.04
2024-03-16T06:14:31.606Z,93.26
2024-03-16T06:17:37.225Z,93.45
2024-03-16T06:20:34.990Z,93.20
2024-03-16T06:26:53.086Z,93.42
2024-03-16T06:29:55.505Z,93.49
2024-03-16T06:33:11.961Z,93.31
2024-03-16T06:36:09.586Z,93.01
2024-03-16T06:42:14.564Z,92.69
2024-03-16T06:51:29.481Z,92.90
2024-03-16T06:54:38.838Z,93.04
2024-03-16T06:57:49.363Z,93.35
2024-03-16T07:00:39.625Z,93.43
2024-03-16T07:03:57.589Z,93.53
2024-03-16T07:07:02.570Z,93.56
2024-03-16T07:10:08.870Z,93.71
2024-03-16T07:12:51.549Z,93.42
2024-03-16T07:15:23.713Z,93.41
2024-03-16T07:17:54.577Z,93.40
2024-03-16T07:20:26.288Z,93.43
2024-03-16T07:22:57.567Z,93.43
2024-03-16T07:26:02.913Z,93.44
2024-03-16T07:29:12.905Z,93.50
2024-03-16T07:32:06.214Z,93.74
2024-03-16T07:38:25.395Z,93.91
2024-03-16T07:41:37.279Z,93.93
2024-03-16T07:44:54.405Z,93.91
2024-03-16T07:50:50.502Z,93.69
2024-03-16T07:53:47.105Z,93.52
2024-03-16T08:09:28.751Z,93.31
2024-03-16T08:15:40.114Z,93.21
2024-03-16T08:24:43.770Z,93.27
2024-03-16T08:28:13.997Z,93.23
2024-03-16T08:31:40.760Z,93.15
2024-03-16T08:34:36.389Z,93.31
2024-03-16T08:37:34.625Z,93.20
2024-03-16T08:40:56.788Z,93.07
2024-03-16T08:43:57.627Z,93.24
2024-03-16T08:50:13.418Z,93.37
2024-03-16T08:59:00.504Z,93.12
2024-03-16T09:01:31.701Z,93.12
2024-03-16T09:04:03.745Z,93.10
2024-03-16T09:06:34.451Z,93.29
2024-03-16T09:09:19.824Z,93.38
2024-03-16T09:11:51.503Z,93.53
2024-03-16T09:14:23.151Z,93.89
2024-03-16T09:16:54.199Z,93.95
2024-03-16T09:19:25.809Z,93.99
2024-03-16T09:22:08.851Z,94.11
2024-03-16T09:25:05.393Z,94.06
2024-03-16T09:27:52.982Z,93.95
2024-03-16T09:30:24.634Z,93.89
2024-03-16T09:32:55.669Z,93.67
2024-03-16T09:35:27.152Z,93.46
2024-03-16T09:37:57.873Z,93.36
2024-03-16T09:40:29.012Z,93.26
